createdAt,value
2019-05-22T00:01:37.169Z,72.60
2019-05-22T00:04:24.360Z,72.70
2019-05-22T00:06:56.660Z,72.60
2019-05-22T00:09:37.798Z,72.70
2019-05-22T00:12:18.057Z,71.90
2019-05-22T00:14:44.615Z,71.70
2019-05-22T00:17:15.618Z,71.30
2019-05-22T00:19:51.241Z,71.70
2019-05-22T00:22:24.980Z,72.10
2019-05-22T00:24:56.864Z,72.20
2019-05-22T00:27:28.340Z,72.20
2019-05-22T00:29:59.051Z,72.00
2019-05-22T00:32:29.813Z,71.70
2019-05-22T00:35:01.236Z,71.40
2019-05-22T00:37:32.254Z,71.70
2019-05-22T00:40:04.134Z,71.20
2019-05-22T00:42:38.745Z,71.70
2019-05-22T00:45:13.489Z,72.50
2019-05-22T00:47:45.072Z,72.40
2019-05-22T00:50:20.811Z,72.30
2019-05-22T00:53:06.180Z,71.60
2019-05-22T00:55:49.852Z,71.70
2019-05-22T00:58:27.992Z,71.70
2019-05-22T01:01:02.032Z,71.60
2019-05-22T01:03:36.222Z,71.90
2019-05-22T01:06:10.041Z,72.10
2019-05-22T01:08:42.516Z,71.90
2019-05-22T01:11:15.487Z,71.50
2019-05-22T01:13:47.010Z,71.50
2019-05-22T01:16:19.395Z,71.70
2019-05-22T01:18:53.708Z,71.90
2019-05-22T01:21:24.945Z,72.10
2019-05-22T01:24:00.078Z,72.20
2019-05-22T01:26:29.570Z,71.90
2019-05-22T01:29:03.094Z,71.50
2019-05-22T01:31:51.315Z,71.60
2019-05-22T01:34:29.776Z,71.50
2019-05-22T01:37:06.663Z,72.00
2019-05-22T01:40:12.892Z,72.50
2019-05-22T01:42:51.954Z,72.70
2019-05-22T01:45:24.091Z,72.60
2019-05-22T01:48:17.054Z,72.40
2019-05-22T01:50:51.319Z,72.30
2019-05-22T01:53:46.399Z,72.00
2019-05-22T01:56:21.305Z,72.20
2019-05-22T01:58:56.081Z,71.90
2019-05-22T02:01:30.460Z,72.30
2019-05-22T02:04:03.857Z,72.20
2019-05-22T02:06:39.611Z,71.80
2019-05-22T02:09:29.005Z,71.60
2019-05-22T02:12:07.535Z,71.70
2019-05-22T02:14:46.489Z,71.60
2019-05-22T02:17:20.469Z,72.40
2019-05-22T02:19:53.740Z,71.60
2019-05-22T02:22:23.212Z,71.70
2019-05-22T02:24:59.819Z,71.70
2019-05-22T02:27:31.322Z,71.80
2019-05-22T02:30:04.782Z,71.30
2019-05-22T02:32:39.979Z,71.30
2019-05-22T02:35:10.257Z,71.10
2019-05-22T02:37:42.949Z,71.20
2019-05-22T02:40:25.891Z,71.10
2019-05-22T02:42:56.365Z,71.10
2019-05-22T02:45:33.991Z,71.10
2019-05-22T02:48:06.546Z,71.00
2019-05-22T02:50:40.372Z,71.50
2019-05-22T02:53:14.884Z,71.60
2019-05-22T02:55:45.187Z,71.50
2019-05-22T02:58:17.377Z,71.40
2019-05-22T03:01:03.012Z,71.50
2019-05-22T03:03:35.217Z,71.30
2019-05-22T03:06:10.023Z,71.80
2019-05-22T03:09:31.740Z,71.60
2019-05-22T03:12:12.632Z,71.20
2019-05-22T03:17:38.557Z,71.30
2019-05-22T03:20:17.117Z,71.30
2019-05-22T03:23:18.757Z,71.30
2019-05-22T03:25:51.725Z,71.70
2019-05-22T03:28:23.437Z,71.80
2019-05-22T03:30:53.180Z,71.70
2019-05-22T03:33:23.874Z,71.50
2019-05-22T03:36:05.650Z,71.20
2019-05-22T03:38:39.940Z,71.30
2019-05-22T03:41:13.480Z,71.20
2019-05-22T03:44:03.785Z,71.30
2019-05-22T03:46:43.264Z,71.50
2019-05-22T03:49:28.966Z,71.50
2019-05-22T03:51:50.738Z,71.70
2019-05-22T03:54:20.478Z,71.50
2019-05-22T03:56:50.558Z,71.40
2019-05-22T03:59:26.566Z,71.60
2019-05-22T04:01:57.216Z,71.40
2019-05-22T04:04:40.979Z,71.00
2019-05-22T04:07:19.431Z,71.30
2019-05-22T04:09:53.568Z,71.30
2019-05-22T04:12:25.021Z,71.30
2019-05-22T04:14:54.593Z,71.10
2019-05-22T04:17:30.125Z,70.50
2019-05-22T04:19:59.367Z,70.70
2019-05-22T04:22:28.591Z,70.70
2019-05-22T04:24:58.402Z,70.70
2019-05-22T04:27:30.851Z,70.80
2019-05-22T04:30:01.857Z,71.00
2019-05-22T04:32:34.945Z,71.10
2019-05-22T04:35:09.365Z,71.30
2019-05-22T04:37:40.637Z,71.20
2019-05-22T04:40:49.164Z,71.30
2019-05-22T04:43:21.310Z,71.30
2019-05-22T04:45:54.023Z,71.30
2019-05-22T04:48:25.327Z,71.30
2019-05-22T04:50:56.304Z,71.00
2019-05-22T04:53:25.968Z,71.00
2019-05-22T04:55:57.948Z,71.10
2019-05-22T04:58:31.231Z,71.20
2019-05-22T05:01:03.276Z,71.00
2019-05-22T05:03:32.714Z,71.20
2019-05-22T05:06:05.997Z,71.20
2019-05-22T05:08:33.333Z,70.90
2019-05-22T05:11:03.624Z,70.90
2019-05-22T05:13:32.988Z,70.20
2019-05-22T05:16:02.828Z,70.50
2019-05-22T05:18:32.600Z,70.20
2019-05-22T05:21:03.294Z,70.50
2019-05-22T05:23:32.593Z,70.10
2019-05-22T05:26:02.117Z,70.40
2019-05-22T05:28:31.564Z,70.50
2019-05-22T05:31:00.843Z,70.70
2019-05-22T05:33:30.867Z,70.60
2019-05-22T05:36:00.958Z,71.00
2019-05-22T05:38:37.140Z,70.70
2019-05-22T05:41:07.570Z,70.70
2019-05-22T05:43:37.138Z,70.70
2019-05-22T05:46:06.734Z,70.60
2019-05-22T05:48:37.001Z,70.20
2019-05-22T05:51:42.662Z,70.10
2019-05-22T05:54:23.398Z,70.50
2019-05-22T05:56:55.253Z,70.70
2019-05-22T05:59:26.381Z,70.10
2019-05-22T06:01:57.955Z,70.30
2019-05-22T06:04:38.928Z,70.30
2019-05-22T06:07:22.742Z,70.50
2019-05-22T06:10:20.650Z,70.50
2019-05-22T06:12:50.557Z,70.90
2019-05-22T06:15:21.933Z,70.80
2019-05-22T06:18:37.367Z,70.80
2019-05-22T06:21:08.699Z,70.60
2019-05-22T06:24:32.833Z,68.50
2019-05-22T06:27:11.212Z,69.80
2019-05-22T06:30:10.143Z,70.30
2019-05-22T06:33:26.136Z,70.40
2019-05-22T06:35:55.940Z,70.10
2019-05-22T06:39:13.732Z,70.10
2019-05-22T06:41:43.801Z,70.40
2019-05-22T06:44:41.388Z,70.10
2019-05-22T06:47:13.521Z,69.70
2019-05-22T06:49:54.017Z,70.00
2019-05-22T06:52:24.853Z,69.90
2019-05-22T06:54:55.739Z,68.00
2019-05-22T06:57:27.362Z,67.50
2019-05-22T07:00:12.139Z,67.80
2019-05-22T07:02:31.602Z,68.50
2019-05-22T07:05:01.026Z,68.70
2019-05-22T07:07:30.141Z,66.00
2019-05-22T07:10:00.304Z,67.60
2019-05-22T07:12:31.455Z,68.30
2019-05-22T07:15:34.603Z,68.10
2019-05-22T07:18:05.466Z,68.40
2019-05-22T07:20:37.912Z,68.70
2019-05-22T07:23:09.342Z,68.50
2019-05-22T07:25:40.245Z,68.80
2019-05-22T07:28:09.641Z,68.40
2019-05-22T07:30:39.354Z,69.50
2019-05-22T07:33:09.130Z,68.10
2019-05-22T07:36:04.793Z,67.70
2019-05-22T07:38:12.703Z,67.80
2019-05-22T07:40:42.687Z,67.50
2019-05-22T07:43:13.974Z,67.60
2019-05-22T07:45:43.818Z,67.50
2019-05-22T07:48:13.946Z,66.90
2019-05-22T07:50:49.279Z,66.40
2019-05-22T07:53:19.072Z,66.60
2019-05-22T07:55:50.838Z,66.90
2019-05-22T07:58:20.940Z,66.20
2019-05-22T08:00:53.192Z,66.60
2019-05-22T08:03:25.105Z,67.40
2019-05-22T08:05:56.162Z,65.40
2019-05-22T08:08:26.641Z,66.00
2019-05-22T08:10:57.746Z,65.30
2019-05-22T08:13:27.792Z,67.00
2019-05-22T08:15:57.729Z,66.40
2019-05-22T08:18:30.399Z,66.90
2019-05-22T08:20:59.868Z,67.30
2019-05-22T08:23:29.633Z,64.50
2019-05-22T08:26:00.392Z,66.40
2019-05-22T08:28:31.847Z,67.30
2019-05-22T08:31:03.554Z,65.50
2019-05-22T08:33:35.189Z,65.30
2019-05-22T08:36:04.798Z,64.50
2019-05-22T08:38:36.254Z,62.40
2019-05-22T08:41:09.161Z,64.70
2019-05-22T08:44:03.309Z,64.10
2019-05-22T08:46:12.779Z,64.30
2019-05-22T08:48:47.735Z,64.40
2019-05-22T08:51:15.058Z,65.00
2019-05-22T08:53:48.099Z,65.10
2019-05-22T08:56:15.350Z,62.00
2019-05-22T08:58:46.354Z,64.20
2019-05-22T09:01:16.650Z,64.60
2019-05-22T09:03:46.524Z,65.60
2019-05-22T09:06:15.726Z,62.20
2019-05-22T09:08:45.619Z,64.00
2019-05-22T09:11:14.964Z,63.90
2019-05-22T09:13:44.427Z,65.10
2019-05-22T09:16:14.553Z,65.30
2019-05-22T09:18:43.746Z,64.20
2019-05-22T09:21:14.240Z,64.40
2019-05-22T09:23:44.421Z,65.00
2019-05-22T09:26:14.372Z,63.40
2019-05-22T09:28:43.584Z,65.00
2019-05-22T09:31:12.841Z,63.40
2019-05-22T09:33:42.059Z,64.60
2019-05-22T09:36:11.292Z,62.10
2019-05-22T09:38:40.999Z,62.10
2019-05-22T09:41:10.185Z,64.80
2019-05-22T09:43:39.430Z,63.50
2019-05-22T09:46:09.284Z,60.50
2019-05-22T09:48:39.431Z,62.20
2019-05-22T09:51:08.766Z,60.90
2019-05-22T09:53:38.496Z,61.80
2019-05-22T09:56:08.273Z,61.00
2019-05-22T09:58:37.457Z,62.00
2019-05-22T10:01:11.712Z,61.60
2019-05-22T10:03:39.968Z,61.60
2019-05-22T10:06:09.290Z,61.70
2019-05-22T10:08:38.771Z,61.10
2019-05-22T10:11:08.646Z,60.70
2019-05-22T10:13:38.393Z,61.40
2019-05-22T10:16:08.162Z,61.70
2019-05-22T10:18:38.079Z,61.00
2019-05-22T10:21:07.742Z,60.90
2019-05-22T10:23:37.282Z,63.20
2019-05-22T10:26:06.661Z,62.60
2019-05-22T10:28:37.914Z,60.60
2019-05-22T10:31:08.820Z,62.80
2019-05-22T10:33:39.503Z,62.00
2019-05-22T10:36:08.939Z,63.10
2019-05-22T10:38:38.144Z,59.30
2019-05-22T10:41:09.023Z,58.00
2019-05-22T10:43:38.415Z,58.40
2019-05-22T10:46:10.051Z,59.60
2019-05-22T10:48:40.548Z,61.30
2019-05-22T10:51:11.264Z,60.70
2019-05-22T10:53:41.097Z,58.70
2019-05-22T10:56:10.845Z,61.70
2019-05-22T10:58:40.140Z,61.50
2019-05-22T11:01:10.072Z,58.80
2019-05-22T11:03:39.333Z,57.60
2019-05-22T11:06:08.884Z,58.00
2019-05-22T11:08:39.382Z,56.00
2019-05-22T11:11:09.426Z,57.80
2019-05-22T11:13:40.593Z,57.40
2019-05-22T11:16:10.573Z,54.40
2019-05-22T11:18:40.456Z,55.60
2019-05-22T11:21:10.510Z,57.90
2019-05-22T11:23:51.462Z,54.20
2019-05-22T11:26:12.573Z,57.40
2019-05-22T11:28:42.413Z,53.70
2019-05-22T11:31:11.910Z,56.70
2019-05-22T11:33:41.397Z,55.90
2019-05-22T11:36:11.554Z,53.70
2019-05-22T11:38:40.785Z,55.50
2019-05-22T11:41:10.441Z,56.10
2019-05-22T11:43:39.677Z,56.60
2019-05-22T11:46:09.638Z,55.40
2019-05-22T11:48:39.127Z,53.80
2019-05-22T11:51:08.371Z,54.30
2019-05-22T11:53:37.798Z,56.50
2019-05-22T11:56:07.021Z,56.70
2019-05-22T11:58:36.457Z,57.10
2019-05-22T12:01:07.065Z,57.40
2019-05-22T12:03:36.355Z,58.00
2019-05-22T12:06:06.754Z,58.80
2019-05-22T12:08:36.004Z,58.30
2019-05-22T12:11:05.886Z,58.70
2019-05-22T12:13:36.022Z,57.90
2019-05-22T12:16:05.790Z,59.10
2019-05-22T12:18:35.547Z,58.70
2019-05-22T12:21:05.762Z,58.00
2019-05-22T12:23:35.056Z,58.00
2019-05-22T12:26:04.471Z,57.20
2019-05-22T12:28:33.858Z,57.60
2019-05-22T12:31:03.786Z,56.20
2019-05-22T12:33:33.046Z,56.60
2019-05-22T12:36:03.611Z,57.60
2019-05-22T12:38:33.768Z,59.10
2019-05-22T12:41:04.567Z,55.50
2019-05-22T12:43:35.098Z,57.00
2019-05-22T12:46:04.826Z,58.50
2019-05-22T12:48:34.626Z,56.20
2019-05-22T12:51:04.226Z,57.30
2019-05-22T12:53:33.579Z,57.90
2019-05-22T12:56:02.734Z,56.00
2019-05-22T12:58:33.561Z,56.30
2019-05-22T13:01:03.360Z,57.90
2019-05-22T13:03:35.047Z,57.60
2019-05-22T13:06:05.319Z,55.00
2019-05-22T13:08:38.419Z,57.70
2019-05-22T13:11:09.097Z,56.90
2019-05-22T13:13:38.743Z,58.10
2019-05-22T13:16:09.572Z,56.30
2019-05-22T13:18:40.779Z,55.30
2019-05-22T13:21:13.284Z,54.50
2019-05-22T13:23:45.708Z,52.90
2019-05-22T13:26:16.103Z,55.80
2019-05-22T13:28:48.011Z,56.80
2019-05-22T13:31:18.142Z,51.90
2019-05-22T13:33:47.633Z,55.40
2019-05-22T13:36:19.071Z,52.90
2019-05-22T13:38:49.401Z,51.00
2019-05-22T13:41:18.884Z,51.20
2019-05-22T13:43:49.727Z,50.60
2019-05-22T13:46:19.304Z,47.70
2019-05-22T13:48:49.004Z,45.30
2019-05-22T13:51:18.698Z,46.70
2019-05-22T13:53:48.647Z,49.30
2019-05-22T13:56:18.972Z,44.60
2019-05-22T13:58:49.305Z,49.60
2019-05-22T14:01:20.563Z,49.20
2019-05-22T14:03:50.552Z,49.00
2019-05-22T14:06:19.868Z,47.70
2019-05-22T14:08:49.255Z,45.90
2019-05-22T14:11:19.107Z,43.00
2019-05-22T14:13:49.494Z,46.70
2019-05-22T14:16:19.710Z,37.30
2019-05-22T14:18:48.856Z,40.70
2019-05-22T14:21:18.235Z,41.60
2019-05-22T14:23:47.370Z,42.70
2019-05-22T14:26:16.650Z,42.50
2019-05-22T14:28:45.881Z,39.50
2019-05-22T14:31:15.083Z,45.70
2019-05-22T14:33:44.295Z,45.40
2019-05-22T14:36:14.406Z,42.80
2019-05-22T14:38:45.126Z,41.10
2019-05-22T14:41:14.584Z,42.30
2019-05-22T14:43:44.012Z,42.40
2019-05-22T14:46:13.243Z,38.10
2019-05-22T14:48:42.697Z,40.80
2019-05-22T14:51:12.371Z,40.00
2019-05-22T14:53:41.840Z,41.50
2019-05-22T14:56:11.524Z,39.40
2019-05-22T14:58:41.653Z,41.90
2019-05-22T15:01:11.213Z,34.00
2019-05-22T15:03:42.564Z,39.30
2019-05-22T15:06:12.147Z,38.40
2019-05-22T15:08:41.237Z,38.70
2019-05-22T15:11:12.081Z,38.10
2019-05-22T15:13:41.463Z,38.80
2019-05-22T15:16:24.974Z,35.40
2019-05-22T15:18:58.237Z,37.60
2019-05-22T15:21:32.727Z,39.80
2019-05-22T15:24:02.473Z,38.50
2019-05-22T15:26:32.089Z,39.50
2019-05-22T15:29:01.228Z,42.00
2019-05-22T15:31:30.836Z,43.90
2019-05-22T15:34:02.482Z,39.10
2019-05-22T15:36:32.698Z,41.70
2019-05-22T15:39:01.953Z,43.30
2019-05-22T15:41:36.852Z,42.70
2019-05-22T15:44:07.178Z,39.10
2019-05-22T15:46:46.526Z,43.10
2019-05-22T15:49:16.167Z,41.20
2019-05-22T15:51:47.674Z,43.10
2019-05-22T15:54:19.362Z,37.20
2019-05-22T15:56:49.050Z,38.90
2019-05-22T15:59:18.505Z,42.40
2019-05-22T16:01:48.665Z,43.70
2019-05-22T16:04:19.901Z,38.10
2019-05-22T16:06:51.586Z,43.00
2019-05-22T16:09:23.525Z,44.20
2019-05-22T16:11:55.283Z,39.70
2019-05-22T16:14:27.465Z,41.30
2019-05-22T16:16:58.288Z,43.10
2019-05-22T16:19:28.383Z,45.10
2019-05-22T16:22:01.245Z,43.00
2019-05-22T16:24:30.389Z,44.80
2019-05-22T16:27:00.668Z,45.50
2019-05-22T16:29:31.180Z,45.60
2019-05-22T16:32:04.273Z,45.10
2019-05-22T16:34:33.630Z,45.50
2019-05-22T16:37:04.108Z,43.50
2019-05-22T16:39:34.052Z,46.20
2019-05-22T16:42:03.296Z,46.00
2019-05-22T16:44:35.032Z,45.00
2019-05-22T16:47:06.971Z,44.70
2019-05-22T16:49:37.812Z,43.70
2019-05-22T16:52:08.984Z,44.30
2019-05-22T16:54:40.921Z,43.50
2019-05-22T16:57:11.703Z,41.40
2019-05-22T16:59:41.603Z,39.60
2019-05-22T17:02:14.710Z,43.90
2019-05-22T17:04:44.554Z,35.70
2019-05-22T17:07:14.004Z,36.90
2019-05-22T17:09:44.362Z,36.20
2019-05-22T17:12:13.871Z,40.10
2019-05-22T17:14:45.740Z,43.60
2019-05-22T17:17:18.065Z,42.80
2019-05-22T17:19:47.564Z,43.90
2019-05-22T17:22:17.808Z,44.20
2019-05-22T17:24:46.955Z,45.10
2019-05-22T17:27:17.096Z,44.40
2019-05-22T17:29:46.416Z,43.30
2019-05-22T17:32:16.601Z,46.10
2019-05-22T17:34:45.932Z,45.20
2019-05-22T17:37:18.147Z,47.10
2019-05-22T17:39:50.738Z,46.60
2019-05-22T17:42:23.334Z,46.00
2019-05-22T17:44:54.086Z,44.60
2019-05-22T17:47:26.380Z,43.90
2019-05-22T17:49:56.844Z,44.10
2019-05-22T17:52:27.656Z,44.10
2019-05-22T17:55:00.236Z,43.30
2019-05-22T17:57:30.513Z,43.00
2019-05-22T18:00:02.731Z,43.20
2019-05-22T18:02:35.284Z,44.00
2019-05-22T18:05:06.949Z,45.20
2019-05-22T18:07:41.261Z,44.10
2019-05-22T18:10:18.546Z,46.10
2019-05-22T18:12:47.967Z,46.50
2019-05-22T18:15:18.804Z,46.10
2019-05-22T18:17:52.548Z,45.90
2019-05-22T18:20:41.747Z,45.10
2019-05-22T18:23:05.627Z,46.40
2019-05-22T18:25:44.849Z,44.80
2019-05-22T18:28:19.764Z,45.70
2019-05-22T18:30:52.642Z,44.30
2019-05-22T18:33:29.377Z,42.50
2019-05-22T18:36:05.263Z,44.30
2019-05-22T18:38:34.818Z,45.20
2019-05-22T18:41:06.084Z,46.50
2019-05-22T18:43:49.709Z,46.40
2019-05-22T18:46:20.280Z,46.80
2019-05-22T18:48:50.391Z,46.90
2019-05-22T18:51:21.115Z,46.40
2019-05-22T18:54:00.848Z,47.20
2019-05-22T18:56:30.862Z,45.00
2019-05-22T19:02:21.535Z,46.50
2019-05-22T19:05:12.667Z,47.30
2019-05-22T19:07:40.387Z,47.90
2019-05-22T19:10:12.201Z,48.70
2019-05-22T19:12:42.691Z,47.50
2019-05-22T19:15:14.433Z,49.00
2019-05-22T19:17:45.642Z,49.10
2019-05-22T19:20:17.881Z,49.10
2019-05-22T19:22:59.872Z,49.10
2019-05-22T19:25:27.784Z,48.80
2019-05-22T19:28:03.161Z,49.60
2019-05-22T19:30:32.572Z,47.80
2019-05-22T19:33:03.353Z,48.80
2019-05-22T19:35:37.359Z,48.60
2019-05-22T19:38:09.908Z,49.10
2019-05-22T19:40:42.022Z,48.90
2019-05-22T19:43:14.755Z,49.90
2019-05-22T19:45:44.475Z,50.20
2019-05-22T19:48:16.221Z,50.60
2019-05-22T19:50:56.897Z,50.70
2019-05-22T19:53:29.308Z,50.90
2019-05-22T19:56:01.446Z,50.60
2019-05-22T19:58:33.967Z,51.10
2019-05-22T20:01:10.448Z,51.20
2019-05-22T20:03:45.862Z,51.20
2019-05-22T20:06:18.246Z,51.40
2019-05-22T20:08:48.737Z,51.50
2019-05-22T20:11:30.568Z,51.70
2019-05-22T20:14:05.622Z,51.70
2019-05-22T20:16:36.560Z,51.80
2019-05-22T20:19:10.396Z,52.40
2019-05-22T20:21:41.052Z,52.00
2019-05-22T20:24:12.346Z,52.00
2019-05-22T20:26:44.758Z,52.10
2019-05-22T20:29:17.053Z,52.10
2019-05-22T20:31:51.644Z,52.20
2019-05-22T20:34:27.352Z,52.20
2019-05-22T20:37:03.234Z,52.30
2019-05-22T20:39:44.773Z,52.30
2019-05-22T20:42:17.816Z,52.40
2019-05-22T20:44:57.150Z,52.40
2019-05-22T20:47:37.822Z,52.40
2019-05-22T20:50:37.462Z,52.50
2019-05-22T20:53:15.794Z,52.60
2019-05-22T20:55:52.383Z,52.70
2019-05-22T20:58:45.443Z,52.80
2019-05-22T21:01:16.376Z,52.70
2019-05-22T21:03:53.754Z,52.70
2019-05-22T21:06:27.167Z,52.80
2019-05-22T21:08:57.666Z,52.90
2019-05-22T21:11:59.704Z,53.00
2019-05-22T21:14:35.306Z,53.50
2019-05-22T21:17:08.317Z,53.10
2019-05-22T21:19:42.018Z,53.10
2019-05-22T21:22:19.738Z,53.20
2019-05-22T21:24:46.908Z,53.20
2019-05-22T21:27:19.052Z,53.20
2019-05-22T21:29:53.685Z,53.30
2019-05-22T21:32:28.127Z,53.30
2019-05-22T21:34:59.609Z,53.20
2019-05-22T21:37:33.553Z,53.30
2019-05-22T21:40:05.339Z,53.30
2019-05-22T21:42:46.435Z,53.30
2019-05-22T21:45:23.601Z,53.30
2019-05-22T21:47:56.751Z,53.40
2019-05-22T21:50:27.431Z,53.40
2019-05-22T21:52:59.337Z,53.30
2019-05-22T21:55:32.048Z,53.30
2019-05-22T21:58:02.258Z,53.30
2019-05-22T22:01:23.982Z,53.30
2019-05-22T22:03:59.037Z,53.50
2019-05-22T22:06:42.940Z,53.50
2019-05-22T22:09:20.562Z,53.40
2019-05-22T22:12:00.903Z,53.50
2019-05-22T22:14:32.392Z,53.60
2019-05-22T22:17:05.293Z,53.60
2019-05-22T22:19:49.526Z,53.60
2019-05-22T22:22:31.682Z,53.50
2019-05-22T22:25:11.859Z,53.60
2019-05-22T22:27:43.359Z,53.60
2019-05-22T22:30:28.614Z,53.60
2019-05-22T22:33:01.428Z,53.70
2019-05-22T22:35:38.116Z,53.60
2019-05-22T22:38:11.209Z,53.70
2019-05-22T22:40:44.738Z,53.70
2019-05-22T22:43:16.303Z,53.60
2019-05-22T22:46:04.106Z,53.70
2019-05-22T22:48:42.400Z,53.70
2019-05-22T22:51:24.974Z,53.80
2019-05-22T22:54:04.665Z,53.70
2019-05-22T22:56:39.730Z,53.80
2019-05-22T22:59:12.338Z,53.80
2019-05-22T23:01:53.143Z,53.80
2019-05-22T23:04:29.984Z,53.70
2019-05-22T23:07:12.747Z,53.70
2019-05-22T23:09:47.930Z,53.80
2019-05-22T23:12:24.701Z,53.80
2019-05-22T23:15:05.108Z,53.70
2019-05-22T23:17:41.962Z,53.90
2019-05-22T23:20:13.675Z,53.80
2019-05-22T23:22:55.549Z,53.90
2019-05-22T23:25:31.452Z,53.80
2019-05-22T23:28:07.978Z,53.90
2019-05-22T23:30:37.946Z,53.70
2019-05-22T23:33:11.022Z,53.80
2019-05-22T23:35:44.421Z,53.80
2019-05-22T23:38:29.289Z,53.70
2019-05-22T23:41:06.934Z,53.70
2019-05-22T23:43:37.681Z,53.60
2019-05-22T23:46:13.648Z,53.70
2019-05-22T23:48:45.474Z,53.70
2019-05-22T23:51:26.237Z,53.70
2019-05-22T23:54:02.580Z,53.80
2019-05-22T23:56:44.454Z,53.90
2019-05-22T23:59:16.668Z,53.70
